Time;durP1;ratioP1;P1;durP2;ratioP2;P2;SDS_P1;SDS_P2;PMS_P1;PMS_P2;Temp;Humidity;BMP_temperature;BMP_pressure;BME280_temperature;BME280_humidity;BME280_pressure;Samples;Min_cycle;Max_cycle;Signal;HPM_P1;HPM_P2
2022/08/20 00:02:09;;;;;;;1.30;0.80;;;;;;;;;;5110019;28;20092;-49
2022/08/20 00:04:35;;;;;;;1.10;0.70;;;;;;;;;;5110307;28;20047;-47
2022/08/20 00:07:00;;;;;;;1.33;1.00;;;;;;;;;;5108502;28;20069;-50
2022/08/20 00:09:26;;;;;;;0.63;0.40;;;;;;;;;;5108329;28;20538;-52
2022/08/20 00:11:51;;;;;;;0.82;0.73;;;;;;;;;;5109563;28;20050;-49
2022/08/20 00:14:16;;;;;;;8.40;0.60;;;;;;;;;;5108831;28;20045;-49
2022/08/20 00:16:42;;;;;;;1.95;1.17;;;;;;;;;;5109849;28;20048;-50
2022/08/20 00:19:08;;;;;;;3.55;0.85;;;;;;;;;;5109986;28;20445;-47
2022/08/20 00:21:35;;;;;;;3.20;0.90;;;;;;;;;;5108362;28;20127;-48
2022/08/20 00:24:00;;;;;;;2.30;0.60;;;;;;;;;;5110367;28;20051;-49
2022/08/20 00:26:25;;;;;;;3.88;1.55;;;;;;;;;;5086416;28;20364;-51
2022/08/20 00:28:51;;;;;;;3.17;1.10;;;;;;;;;;5109804;28;20047;-48
2022/08/20 00:31:18;;;;;;;0.95;0.68;;;;;;;;;;5109213;28;20514;-49
2022/08/20 00:33:44;;;;;;;1.83;0.93;;;;;;;;;;5108912;28;20048;-53
2022/08/20 00:36:11;;;;;;;2.38;1.17;;;;;;;;;;5107823;28;20163;-47
2022/08/20 00:38:40;;;;;;;1.42;1.05;;;;;;;;;;5108770;28;20461;-46
2022/08/20 00:41:06;;;;;;;3.40;2.92;;;;;;;;;;5107468;28;20392;-46
2022/08/20 00:43:35;;;;;;;3.47;1.48;;;;;;;;;;5108197;28;20047;-48
2022/08/20 00:46:04;;;;;;;8.52;1.67;;;;;;;;;;5110306;28;20042;-53
2022/08/20 00:48:30;;;;;;;4.05;3.65;;;;;;;;;;5107440;28;20039;-52
2022/08/20 00:51:01;;;;;;;2.50;1.52;;;;;;;;;;5109149;28;20081;-47
2022/08/20 00:53:27;;;;;;;1.77;1.40;;;;;;;;;;5107603;28;20088;-47
2022/08/20 00:55:53;;;;;;;2.20;1.52;;;;;;;;;;5108936;28;20130;-48
2022/08/20 00:58:18;;;;;;;2.45;1.58;;;;;;;;;;5109111;28;20051;-48
2022/08/20 01:00:45;;;;;;;2.92;0.93;;;;;;;;;;5108753;28;20107;-49
2022/08/20 01:03:12;;;;;;;2.70;1.30;;;;;;;;;;5109109;28;20058;-51
2022/08/20 01:05:38;;;;;;;1.73;0.98;;;;;;;;;;5109255;28;20047;-51
2022/08/20 01:08:04;;;;;;;2.28;1.55;;;;;;;;;;5107464;28;20052;-49
2022/08/20 01:10:33;;;;;;;7.85;1.00;;;;;;;;;;5108997;28;20054;-50
2022/08/20 01:12:59;;;;;;;6.55;2.10;;;;;;;;;;5104269;28;20055;-49
2022/08/20 01:15:26;;;;;;;1.95;1.20;;;;;;;;;;5105816;28;20521;-51
2022/08/20 01:17:53;;;;;;;3.65;1.85;;;;;;;;;;5108829;28;20044;-48
2022/08/20 01:20:21;;;;;;;1.73;0.95;;;;;;;;;;5107465;28;20089;-48
2022/08/20 01:23:31;;;;;;;5.03;1.92;;;;;;;;;;5108570;28;20053;-45
2022/08/20 01:26:09;;;;;;;4.28;1.27;;;;;;;;;;5046325;28;20060;-48
2022/08/20 01:28:42;;;;;;;1.45;1.35;;;;;;;;;;5103022;28;20108;-47
2022/08/20 01:31:09;;;;;;;1.10;0.70;;;;;;;;;;5108635;28;20117;-51
2022/08/20 01:33:35;;;;;;;1.50;0.70;;;;;;;;;;5106763;28;20051;-47
2022/08/20 01:36:00;;;;;;;3.33;2.63;;;;;;;;;;5108671;28;20701;-52
2022/08/20 01:38:27;;;;;;;1.33;0.90;;;;;;;;;;5107755;28;20047;-49
2022/08/20 01:40:55;;;;;;;1.42;0.65;;;;;;;;;;5108590;28;20058;-49
2022/08/20 01:43:22;;;;;;;1.75;1.00;;;;;;;;;;5107942;28;20055;-50
2022/08/20 01:45:48;;;;;;;1.48;0.57;;;;;;;;;;5106062;28;20475;-47
2022/08/20 01:48:14;;;;;;;1.60;0.60;;;;;;;;;;5107431;28;20040;-50
2022/08/20 01:50:40;;;;;;;2.60;1.42;;;;;;;;;;5106470;28;20829;-49
2022/08/20 01:53:13;;;;;;;3.03;0.93;;;;;;;;;;5107509;28;20111;-49
2022/08/20 01:55:39;;;;;;;2.38;1.08;;;;;;;;;;5105870;28;20044;-48
2022/08/20 01:58:04;;;;;;;0.45;0.22;;;;;;;;;;5107331;28;20046;-51
2022/08/20 02:00:31;;;;;;;1.95;0.68;;;;;;;;;;5108369;28;20101;-51
2022/08/20 02:02:56;;;;;;;1.17;0.85;;;;;;;;;;5107655;28;20090;-50
2022/08/20 02:05:22;;;;;;;14.10;1.75;;;;;;;;;;5108459;28;20661;-49
2022/08/20 02:07:48;;;;;;;4.57;1.05;;;;;;;;;;5107707;28;20071;-45
2022/08/20 02:10:14;;;;;;;3.30;1.17;;;;;;;;;;5107796;28;20082;-51
2022/08/20 02:12:39;;;;;;;3.53;1.48;;;;;;;;;;5105649;28;20099;-46
2022/08/20 02:15:07;;;;;;;3.45;1.17;;;;;;;;;;5108165;28;20107;-49
2022/08/20 02:17:32;;;;;;;2.53;1.17;;;;;;;;;;5108319;28;20099;-47
2022/08/20 02:20:04;;;;;;;2.13;1.00;;;;;;;;;;5088940;28;20190;-50
2022/08/20 02:22:42;;;;;;;5.43;2.13;;;;;;;;;;5104245;28;20928;-49
2022/08/20 02:25:08;;;;;;;5.13;1.95;;;;;;;;;;5107379;28;20051;-50
2022/08/20 02:27:34;;;;;;;7.35;1.10;;;;;;;;;;5108110;28;20450;-49
2022/08/20 02:29:59;;;;;;;2.47;1.80;;;;;;;;;;5103946;28;20074;-51
2022/08/20 02:32:25;;;;;;;2.35;1.30;;;;;;;;;;5105924;28;20059;-46
2022/08/20 02:34:50;;;;;;;4.43;1.58;;;;;;;;;;5106683;28;20052;-50
2022/08/20 02:37:17;;;;;;;22.40;1.73;;;;;;;;;;5107006;28;20607;-50
2022/08/20 02:39:42;;;;;;;9.75;1.23;;;;;;;;;;5104811;28;20040;-50
2022/08/20 02:42:08;;;;;;;1.25;0.98;;;;;;;;;;5107421;28;20047;-48
2022/08/20 02:44:34;;;;;;;1.30;0.82;;;;;;;;;;5106574;28;20055;-49
2022/08/20 02:47:00;;;;;;;0.70;0.45;;;;;;;;;;5105460;28;20073;-48
2022/08/20 02:49:25;;;;;;;6.57;1.10;;;;;;;;;;5107218;28;20418;-47
2022/08/20 02:51:50;;;;;;;3.80;0.95;;;;;;;;;;5106972;28;20067;-48
2022/08/20 02:54:16;;;;;;;1.30;0.70;;;;;;;;;;5106708;28;20048;-48
2022/08/20 02:56:42;;;;;;;2.97;1.20;;;;;;;;;;5107747;28;20109;-50
2022/08/20 02:59:07;;;;;;;1.33;0.60;;;;;;;;;;5105473;28;20035;-50
2022/08/20 03:01:33;;;;;;;2.58;0.73;;;;;;;;;;5106836;28;20053;-47
2022/08/20 03:03:59;;;;;;;5.88;1.13;;;;;;;;;;5106943;28;20133;-48
2022/08/20 03:06:25;;;;;;;1.55;1.10;;;;;;;;;;5105689;28;20070;-48
2022/08/20 03:08:50;;;;;;;6.95;1.60;;;;;;;;;;5105675;28;20051;-52
2022/08/20 03:11:16;;;;;;;1.75;0.88;;;;;;;;;;5107117;28;20039;-48
2022/08/20 03:13:41;;;;;;;4.53;2.10;;;;;;;;;;5103466;28;20051;-50
2022/08/20 03:16:07;;;;;;;2.97;1.70;;;;;;;;;;5106608;28;20120;-48
2022/08/20 03:18:34;;;;;;;1.92;1.20;;;;;;;;;;5105797;28;20043;-47
2022/08/20 03:21:00;;;;;;;1.75;1.10;;;;;;;;;;5105494;28;20491;-47
2022/08/20 03:23:25;;;;;;;1.55;1.20;;;;;;;;;;5106499;28;20064;-48
2022/08/20 03:25:50;;;;;;;6.70;1.40;;;;;;;;;;5103796;28;20066;-48
2022/08/20 03:28:16;;;;;;;2.97;1.20;;;;;;;;;;5106921;28;20044;-48
2022/08/20 03:30:42;;;;;;;1.85;1.08;;;;;;;;;;5107619;28;20055;-49
2022/08/20 03:33:08;;;;;;;2.25;0.85;;;;;;;;;;5106879;28;20040;-54
2022/08/20 03:35:36;;;;;;;1.73;1.25;;;;;;;;;;5105033;28;20638;-54
2022/08/20 03:38:04;;;;;;;1.90;1.60;;;;;;;;;;5104978;28;20104;-52
2022/08/20 03:40:31;;;;;;;4.70;0.93;;;;;;;;;;5107032;28;20122;-46
2022/08/20 03:42:57;;;;;;;7.18;1.25;;;;;;;;;;5106532;28;20051;-51
2022/08/20 03:45:23;;;;;;;4.68;1.42;;;;;;;;;;5106527;28;20043;-51
2022/08/20 03:47:50;;;;;;;4.65;1.63;;;;;;;;;;5106464;28;20520;-49
2022/08/20 03:50:17;;;;;;;4.88;4.38;;;;;;;;;;5106733;28;20196;-51
2022/08/20 03:52:42;;;;;;;3.05;1.38;;;;;;;;;;5106099;28;20161;-50
2022/08/20 03:55:08;;;;;;;5.82;2.42;;;;;;;;;;5106531;28;20119;-49
2022/08/20 03:57:34;;;;;;;4.75;1.65;;;;;;;;;;5104544;28;20040;-47
2022/08/20 04:00:00;;;;;;;2.15;1.52;;;;;;;;;;5102969;28;20423;-48
2022/08/20 04:02:26;;;;;;;2.88;1.10;;;;;;;;;;5103795;28;20089;-49
2022/08/20 04:04:53;;;;;;;1.55;0.65;;;;;;;;;;5105652;28;20075;-51
2022/08/20 04:07:24;;;;;;;7.20;5.30;;;;;;;;;;5102489;28;20046;-51
2022/08/20 04:09:53;;;;;;;2.40;1.52;;;;;;;;;;5104649;28;20074;-49
2022/08/20 04:12:18;;;;;;;0.65;0.55;;;;;;;;;;5105516;28;20036;-46
2022/08/20 04:14:44;;;;;;;1.65;0.85;;;;;;;;;;5104968;28;20093;-48
2022/08/20 04:17:11;;;;;;;2.67;1.05;;;;;;;;;;5105069;28;20044;-51
2022/08/20 04:19:36;;;;;;;1.73;0.85;;;;;;;;;;5105527;28;20039;-48
2022/08/20 04:22:02;;;;;;;1.58;0.90;;;;;;;;;;5101885;28;20046;-53
2022/08/20 04:24:27;;;;;;;2.10;1.25;;;;;;;;;;5105524;28;20047;-50
2022/08/20 04:26:53;;;;;;;6.65;1.40;;;;;;;;;;5106063;28;20055;-50
2022/08/20 04:29:19;;;;;;;0.60;0.43;;;;;;;;;;5105053;28;20498;-51
2022/08/20 04:31:44;;;;;;;3.78;1.35;;;;;;;;;;5106539;28;20379;-46
2022/08/20 04:34:10;;;;;;;2.42;1.17;;;;;;;;;;5102952;28;20051;-55
2022/08/20 04:36:35;;;;;;;1.88;1.02;;;;;;;;;;5108682;28;20043;-51
2022/08/20 04:39:01;;;;;;;3.55;2.85;;;;;;;;;;5108661;28;20086;-53
2022/08/20 04:41:26;;;;;;;3.55;1.58;;;;;;;;;;5109799;27;20051;-50
2022/08/20 04:43:52;;;;;;;4.15;1.33;;;;;;;;;;5107205;28;20032;-54
2022/08/20 04:46:18;;;;;;;2.20;1.65;;;;;;;;;;5108968;28;20139;-56
2022/08/20 04:48:44;;;;;;;4.30;1.60;;;;;;;;;;5109914;28;20084;-49
2022/08/20 04:51:09;;;;;;;2.85;1.30;;;;;;;;;;5109062;28;20050;-49
2022/08/20 04:53:34;;;;;;;1.45;0.93;;;;;;;;;;5107945;28;20050;-47
2022/08/20 04:56:01;;;;;;;4.28;2.42;;;;;;;;;;5109632;28;20044;-47
2022/08/20 04:58:32;;;;;;;1.10;0.80;;;;;;;;;;5109717;28;20040;-52
2022/08/20 05:00:59;;;;;;;1.48;0.77;;;;;;;;;;5107239;28;20046;-51
2022/08/20 05:03:25;;;;;;;4.20;2.42;;;;;;;;;;5108639;28;20576;-52
2022/08/20 05:05:50;;;;;;;2.55;1.63;;;;;;;;;;5108660;28;20507;-53
2022/08/20 05:08:16;;;;;;;1.73;1.20;;;;;;;;;;5106589;28;20577;-50
2022/08/20 05:10:42;;;;;;;2.35;1.65;;;;;;;;;;5109295;28;20053;-46
2022/08/20 05:13:08;;;;;;;1.30;0.68;;;;;;;;;;5109086;28;20039;-50
2022/08/20 05:15:34;;;;;;;4.93;0.95;;;;;;;;;;5108096;28;20530;-46
2022/08/20 05:18:01;;;;;;;6.90;1.95;;;;;;;;;;5108612;28;20048;-46
2022/08/20 05:20:30;;;;;;;1.15;0.57;;;;;;;;;;5107938;28;20514;-49
2022/08/20 05:22:55;;;;;;;8.10;3.15;;;;;;;;;;5108810;28;20890;-48
2022/08/20 05:25:21;;;;;;;2.20;1.20;;;;;;;;;;5109122;28;20258;-47
2022/08/20 05:27:46;;;;;;;2.58;1.48;;;;;;;;;;5108192;28;20502;-47
2022/08/20 05:30:12;;;;;;;1.77;1.48;;;;;;;;;;5107257;28;20055;-46
2022/08/20 05:32:37;;;;;;;1.83;0.73;;;;;;;;;;5105654;28;20513;-49
2022/08/20 05:35:04;;;;;;;2.05;1.13;;;;;;;;;;5107343;28;20135;-50
2022/08/20 05:37:30;;;;;;;5.97;2.28;;;;;;;;;;5107526;28;20139;-52
2022/08/20 05:39:55;;;;;;;6.55;1.80;;;;;;;;;;5108961;28;20123;-47
2022/08/20 05:42:20;;;;;;;4.05;2.47;;;;;;;;;;5106865;28;20056;-47
2022/08/20 05:44:46;;;;;;;1.95;1.13;;;;;;;;;;5108030;28;20499;-52
2022/08/20 05:47:12;;;;;;;1.58;1.02;;;;;;;;;;5108418;28;20043;-46
2022/08/20 05:49:37;;;;;;;3.72;1.50;;;;;;;;;;5107443;28;20048;-46
2022/08/20 05:52:03;;;;;;;1.48;0.98;;;;;;;;;;5108481;28;20765;-52
2022/08/20 05:54:28;;;;;;;4.53;1.30;;;;;;;;;;5106876;28;20056;-50
2022/08/20 05:56:54;;;;;;;3.88;2.15;;;;;;;;;;5106915;28;20520;-51
2022/08/20 05:59:21;;;;;;;2.42;1.42;;;;;;;;;;5108605;28;20491;-54
2022/08/20 06:01:46;;;;;;;8.73;1.25;;;;;;;;;;5107540;28;20051;-48
2022/08/20 06:04:24;;;;;;;1.55;0.93;;;;;;;;;;5105680;28;20035;-51
2022/08/20 06:06:53;;;;;;;1.42;0.88;;;;;;;;;;5105329;28;20058;-53
2022/08/20 06:09:20;;;;;;;3.15;1.88;;;;;;;;;;5106820;28;20106;-51
2022/08/20 06:11:45;;;;;;;6.45;3.53;;;;;;;;;;5107504;28;20047;-51
2022/08/20 06:14:11;;;;;;;4.38;3.10;;;;;;;;;;5104575;28;20486;-52
2022/08/20 06:16:36;;;;;;;2.97;2.22;;;;;;;;;;5103574;28;20054;-50
2022/08/20 06:19:02;;;;;;;8.13;1.85;;;;;;;;;;5107034;28;20499;-53
2022/08/20 06:21:27;;;;;;;5.97;1.77;;;;;;;;;;5106917;28;20555;-49
2022/08/20 06:23:52;;;;;;;5.72;2.30;;;;;;;;;;5106786;27;20773;-52
2022/08/20 06:26:18;;;;;;;3.85;1.80;;;;;;;;;;5105350;28;20557;-50
2022/08/20 06:28:43;;;;;;;4.43;2.35;;;;;;;;;;5107031;28;20100;-53
2022/08/20 06:31:10;;;;;;;2.88;1.75;;;;;;;;;;5105508;28;20036;-53
2022/08/20 06:33:35;;;;;;;3.00;1.60;;;;;;;;;;5105396;28;20635;-53
2022/08/20 06:36:01;;;;;;;10.55;2.45;;;;;;;;;;5106482;28;20036;-52
2022/08/20 06:38:26;;;;;;;3.10;1.98;;;;;;;;;;5106359;28;20035;-49
2022/08/20 06:40:52;;;;;;;2.53;1.63;;;;;;;;;;5107411;28;20043;-50
2022/08/20 06:43:17;;;;;;;2.92;1.60;;;;;;;;;;5105565;28;20040;-52
2022/08/20 06:45:42;;;;;;;3.63;2.30;;;;;;;;;;5106475;28;20051;-50
2022/08/20 06:48:10;;;;;;;3.75;1.85;;;;;;;;;;5107623;28;20120;-53
2022/08/20 06:50:38;;;;;;;6.20;3.33;;;;;;;;;;5107621;28;20054;-54
2022/08/20 06:53:04;;;;;;;4.60;3.75;;;;;;;;;;5107183;28;20056;-52
2022/08/20 06:55:30;;;;;;;6.28;3.17;;;;;;;;;;5107432;28;20491;-53
2022/08/20 06:57:58;;;;;;;3.78;2.72;;;;;;;;;;5107276;28;20095;-54
2022/08/20 07:00:24;;;;;;;6.10;2.72;;;;;;;;;;5107073;28;20051;-50
2022/08/20 07:02:49;;;;;;;1.08;0.93;;;;;;;;;;5107615;28;20043;-48
2022/08/20 07:05:15;;;;;;;5.97;1.00;;;;;;;;;;5106563;28;20172;-47
2022/08/20 07:07:43;;;;;;;3.65;1.55;;;;;;;;;;5107496;28;20032;-52
2022/08/20 07:10:10;;;;;;;2.13;1.20;;;;;;;;;;5106969;28;20039;-50
2022/08/20 07:12:35;;;;;;;9.40;1.83;;;;;;;;;;5106708;28;20032;-49
2022/08/20 07:15:02;;;;;;;1.35;0.82;;;;;;;;;;5106972;28;20152;-53
2022/08/20 07:17:28;;;;;;;2.85;1.17;;;;;;;;;;5103861;28;20074;-52
2022/08/20 07:19:53;;;;;;;2.15;1.38;;;;;;;;;;5106050;28;20048;-51
2022/08/20 07:22:19;;;;;;;6.00;1.45;;;;;;;;;;5106019;28;20035;-53
2022/08/20 07:24:44;;;;;;;3.20;1.20;;;;;;;;;;5106837;28;20162;-51
2022/08/20 07:27:09;;;;;;;1.98;1.00;;;;;;;;;;5106441;28;20044;-47
2022/08/20 07:32:35;;;;;;;2.97;1.77;;;;;;;;;;5103307;28;20074;-52
2022/08/20 07:35:00;;;;;;;7.38;1.60;;;;;;;;;;5105276;28;20055;-49
2022/08/20 07:37:26;;;;;;;12.02;5.40;;;;;;;;;;5105323;28;20054;-53
2022/08/20 07:39:51;;;;;;;28.85;22.70;;;;;;;;;;5106169;28;20050;-50
2022/08/20 07:42:17;;;;;;;33.60;29.63;;;;;;;;;;5106256;28;20052;-52
2022/08/20 07:44:42;;;;;;;17.70;14.40;;;;;;;;;;5106685;28;20064;-50
2022/08/20 07:47:08;;;;;;;8.30;2.88;;;;;;;;;;5106541;28;20400;-46
2022/08/20 07:49:36;;;;;;;3.00;1.88;;;;;;;;;;5107039;28;20035;-52
2022/08/20 07:52:02;;;;;;;3.60;2.03;;;;;;;;;;5105629;28;20507;-50
2022/08/20 07:54:28;;;;;;;8.60;2.45;;;;;;;;;;5106123;28;20157;-49
2022/08/20 07:56:54;;;;;;;1.65;1.45;;;;;;;;;;5106723;28;20031;-55
2022/08/20 07:59:20;;;;;;;14.55;2.35;;;;;;;;;;5104914;28;20043;-52
2022/08/20 08:01:45;;;;;;;3.33;1.77;;;;;;;;;;5106233;28;20036;-49
2022/08/20 08:04:10;;;;;;;6.53;1.25;;;;;;;;;;5105487;28;20047;-50
2022/08/20 08:06:36;;;;;;;15.90;1.80;;;;;;;;;;5105653;28;20043;-53
2022/08/20 08:09:04;;;;;;;5.97;2.67;;;;;;;;;;5106848;28;20531;-52
2022/08/20 08:11:31;;;;;;;3.22;2.28;;;;;;;;;;5110361;28;20048;-52
2022/08/20 08:13:57;;;;;;;2.95;1.85;;;;;;;;;;5109328;28;20071;-55
2022/08/20 08:16:22;;;;;;;5.72;3.35;;;;;;;;;;5108492;28;20048;-52
2022/08/20 08:18:50;;;;;;;5.03;2.90;;;;;;;;;;5109539;28;20057;-51
2022/08/20 08:21:16;;;;;;;5.00;2.58;;;;;;;;;;5109810;28;20142;-49
2022/08/20 08:23:43;;;;;;;6.20;3.30;;;;;;;;;;5109144;28;20059;-48
2022/08/20 08:26:09;;;;;;;4.15;3.00;;;;;;;;;;5109589;28;20046;-50
2022/08/20 08:28:35;;;;;;;3.85;2.15;;;;;;;;;;5108743;27;20063;-52
2022/08/20 08:31:01;;;;;;;4.82;2.92;;;;;;;;;;5108254;28;20054;-52
2022/08/20 08:33:27;;;;;;;5.18;3.35;;;;;;;;;;5109867;28;20121;-52
2022/08/20 08:35:54;;;;;;;5.10;3.47;;;;;;;;;;5109187;28;20044;-51
2022/08/20 08:38:21;;;;;;;4.43;3.47;;;;;;;;;;5108347;28;20040;-53
2022/08/20 08:40:48;;;;;;;6.30;3.88;;;;;;;;;;5109202;28;20036;-46
2022/08/20 08:43:14;;;;;;;4.00;2.40;;;;;;;;;;5109499;28;20557;-50
2022/08/20 08:45:42;;;;;;;17.38;2.97;;;;;;;;;;5110237;28;20043;-50
2022/08/20 08:48:08;;;;;;;4.53;2.08;;;;;;;;;;5107899;28;20153;-51
2022/08/20 08:50:34;;;;;;;3.58;2.42;;;;;;;;;;5108848;28;20084;-51
2022/08/20 08:53:01;;;;;;;4.53;1.63;;;;;;;;;;5108909;28;20044;-50
2022/08/20 08:55:28;;;;;;;1.95;1.25;;;;;;;;;;5109940;28;20087;-55
2022/08/20 08:57:54;;;;;;;3.55;1.35;;;;;;;;;;5109628;28;20043;-51
2022/08/20 09:00:20;;;;;;;2.90;1.35;;;;;;;;;;5109156;28;20093;-49
2022/08/20 09:02:53;;;;;;;1.50;1.00;;;;;;;;;;5109561;28;20051;-50
2022/08/20 09:05:19;;;;;;;2.72;1.60;;;;;;;;;;5107894;28;20047;-48
2022/08/20 09:07:47;;;;;;;1.75;0.75;;;;;;;;;;5108114;28;20059;-47
2022/08/20 09:10:13;;;;;;;2.47;0.85;;;;;;;;;;5085086;28;20426;-49
2022/08/20 09:12:38;;;;;;;0.95;0.52;;;;;;;;;;5108650;28;20036;-49
2022/08/20 09:15:04;;;;;;;3.38;1.17;;;;;;;;;;5108135;28;20447;-52
2022/08/20 09:17:29;;;;;;;0.82;0.30;;;;;;;;;;5106700;28;20318;-52
2022/08/20 09:19:55;;;;;;;0.95;0.52;;;;;;;;;;5107769;28;20483;-51
2022/08/20 09:22:22;;;;;;;1.15;0.52;;;;;;;;;;5107197;28;20282;-47
2022/08/20 09:24:48;;;;;;;3.28;0.95;;;;;;;;;;5108368;28;20481;-53
2022/08/20 09:27:13;;;;;;;1.42;0.50;;;;;;;;;;5108795;28;20040;-52
2022/08/20 09:29:39;;;;;;;1.00;0.35;;;;;;;;;;5108601;28;20479;-54
2022/08/20 09:32:12;;;;;;;1.98;0.63;;;;;;;;;;5107702;28;20086;-48
2022/08/20 09:34:38;;;;;;;2.67;1.15;;;;;;;;;;5105834;28;20951;-48
2022/08/20 09:37:04;;;;;;;0.88;0.45;;;;;;;;;;5108490;28;20039;-46
2022/08/20 09:39:29;;;;;;;4.78;1.38;;;;;;;;;;5083371;28;20109;-49
2022/08/20 09:41:54;;;;;;;1.80;0.52;;;;;;;;;;5106359;28;20040;-47
2022/08/20 09:44:19;;;;;;;3.42;0.85;;;;;;;;;;5108661;28;20051;-49
2022/08/20 09:46:45;;;;;;;0.95;0.40;;;;;;;;;;5107559;28;20047;-49
2022/08/20 09:49:10;;;;;;;5.85;0.85;;;;;;;;;;5107534;28;20504;-48
2022/08/20 09:51:35;;;;;;;6.63;1.30;;;;;;;;;;5107872;28;20088;-47
2022/08/20 09:54:01;;;;;;;3.05;0.70;;;;;;;;;;5107322;28;20039;-50
2022/08/20 09:56:27;;;;;;;0.88;0.65;;;;;;;;;;5106954;28;20588;-51
2022/08/20 09:58:54;;;;;;;8.70;1.27;;;;;;;;;;5108995;28;20040;-46
2022/08/20 10:01:20;;;;;;;1.10;0.50;;;;;;;;;;5108853;28;20075;-53
2022/08/20 10:03:47;;;;;;;2.53;1.15;;;;;;;;;;5087197;28;20092;-50
2022/08/20 10:06:13;;;;;;;1.83;0.73;;;;;;;;;;5108495;28;20233;-47
2022/08/20 10:08:39;;;;;;;3.40;1.38;;;;;;;;;;5108199;28;20090;-48
2022/08/20 10:11:04;;;;;;;0.82;0.57;;;;;;;;;;5107135;28;20498;-48
2022/08/20 10:13:30;;;;;;;1.67;0.85;;;;;;;;;;5107676;28;20150;-48
2022/08/20 10:15:55;;;;;;;0.73;0.30;;;;;;;;;;5107001;28;20517;-51
2022/08/20 10:18:20;;;;;;;0.60;0.50;;;;;;;;;;5106018;28;20408;-51
2022/08/20 10:20:46;;;;;;;1.25;0.30;;;;;;;;;;5105182;28;20035;-50
2022/08/20 10:23:11;;;;;;;1.98;0.82;;;;;;;;;;5107317;28;20418;-48
2022/08/20 10:25:37;;;;;;;0.50;0.45;;;;;;;;;;5106353;28;20085;-51
2022/08/20 10:28:02;;;;;;;2.58;1.33;;;;;;;;;;5103884;28;20557;-50
2022/08/20 10:30:28;;;;;;;1.48;0.70;;;;;;;;;;5105668;28;20040;-48
2022/08/20 10:32:53;;;;;;;2.20;1.45;;;;;;;;;;5106351;28;20379;-52
2022/08/20 10:35:18;;;;;;;0.75;0.50;;;;;;;;;;5106303;28;20469;-51
2022/08/20 10:37:44;;;;;;;0.70;0.57;;;;;;;;;;5104263;28;20499;-51
2022/08/20 10:40:10;;;;;;;1.30;0.47;;;;;;;;;;5105913;28;20525;-51
2022/08/20 10:42:35;;;;;;;2.97;1.05;;;;;;;;;;5106934;28;20086;-48
2022/08/20 10:45:01;;;;;;;2.78;0.68;;;;;;;;;;5106419;28;20485;-51
2022/08/20 10:47:28;;;;;;;3.33;0.68;;;;;;;;;;5106422;28;20047;-50
2022/08/20 10:49:54;;;;;;;1.23;0.63;;;;;;;;;;5101585;28;20440;-47
2022/08/20 10:52:20;;;;;;;0.63;0.47;;;;;;;;;;5104278;28;20058;-49
2022/08/20 10:54:45;;;;;;;1.15;0.65;;;;;;;;;;5105110;28;20233;-48
2022/08/20 10:57:16;;;;;;;1.15;0.65;;;;;;;;;;5104384;28;20040;-51
2022/08/20 10:59:42;;;;;;;1.05;0.32;;;;;;;;;;5107325;28;20032;-51
2022/08/20 11:02:08;;;;;;;3.50;1.58;;;;;;;;;;5105929;28;20039;-52
2022/08/20 11:04:33;;;;;;;1.48;0.63;;;;;;;;;;5106421;28;20499;-51
2022/08/20 11:07:08;;;;;;;2.83;1.00;;;;;;;;;;5103262;28;20100;-53
2022/08/20 11:09:34;;;;;;;1.13;0.35;;;;;;;;;;5106268;28;20047;-48
2022/08/20 11:11:59;;;;;;;1.73;0.50;;;;;;;;;;5105586;28;20039;-50
2022/08/20 11:14:24;;;;;;;3.10;1.77;;;;;;;;;;5103330;28;20043;-49
2022/08/20 11:16:50;;;;;;;2.78;0.98;;;;;;;;;;5105937;28;20047;-49
2022/08/20 11:19:15;;;;;;;0.85;0.47;;;;;;;;;;5088079;28;20055;-54
2022/08/20 11:21:40;;;;;;;5.22;0.60;;;;;;;;;;5104846;28;20136;-48
2022/08/20 11:24:05;;;;;;;1.58;0.57;;;;;;;;;;5105499;28;20051;-48
2022/08/20 11:26:31;;;;;;;1.00;0.45;;;;;;;;;;5105953;28;20452;-50
2022/08/20 11:28:56;;;;;;;0.45;0.30;;;;;;;;;;5105686;28;20108;-48
2022/08/20 11:31:21;;;;;;;7.40;0.70;;;;;;;;;;5104514;28;20062;-51
2022/08/20 11:33:47;;;;;;;2.17;1.10;;;;;;;;;;5102886;28;20448;-53
2022/08/20 11:36:12;;;;;;;3.55;0.73;;;;;;;;;;5105805;28;20595;-51
2022/08/20 11:38:37;;;;;;;0.95;0.60;;;;;;;;;;5106440;28;20491;-53
2022/08/20 11:41:03;;;;;;;3.17;0.90;;;;;;;;;;5106769;28;20051;-49
2022/08/20 11:43:28;;;;;;;6.95;2.25;;;;;;;;;;5105951;28;20051;-48
2022/08/20 11:45:54;;;;;;;2.95;0.68;;;;;;;;;;5108788;28;20062;-51
2022/08/20 11:48:20;;;;;;;4.70;1.25;;;;;;;;;;5109166;28;20050;-50
2022/08/20 11:50:45;;;;;;;2.47;0.95;;;;;;;;;;5109757;28;20355;-50
2022/08/20 11:53:11;;;;;;;1.27;0.93;;;;;;;;;;5110194;28;20478;-49
2022/08/20 11:55:36;;;;;;;1.27;0.68;;;;;;;;;;5109116;28;20138;-51
2022/08/20 11:58:02;;;;;;;2.03;0.80;;;;;;;;;;5110196;28;20046;-50
2022/08/20 12:00:29;;;;;;;2.80;0.77;;;;;;;;;;5108302;28;20051;-53
2022/08/20 12:02:54;;;;;;;3.70;1.02;;;;;;;;;;5109847;28;20115;-51
2022/08/20 12:05:20;;;;;;;1.55;0.60;;;;;;;;;;5108926;28;20204;-51
2022/08/20 12:07:46;;;;;;;0.85;0.45;;;;;;;;;;5109173;28;20083;-50
2022/08/20 12:10:11;;;;;;;8.25;2.85;;;;;;;;;;5106480;28;20039;-51
2022/08/20 12:12:37;;;;;;;4.13;1.73;;;;;;;;;;5105401;28;20055;-48
2022/08/20 12:15:04;;;;;;;3.45;0.68;;;;;;;;;;5109353;28;20127;-53
2022/08/20 12:17:31;;;;;;;2.85;0.95;;;;;;;;;;5110064;28;20109;-52
2022/08/20 12:19:57;;;;;;;0.57;0.38;;;;;;;;;;5105646;28;20490;-51
2022/08/20 12:22:23;;;;;;;1.63;0.88;;;;;;;;;;5107884;28;20048;-51
2022/08/20 12:24:48;;;;;;;1.15;0.80;;;;;;;;;;5107216;28;20161;-52
2022/08/20 12:27:32;;;;;;;0.88;0.32;;;;;;;;;;5107561;28;20079;-49
2022/08/20 12:29:59;;;;;;;1.35;0.70;;;;;;;;;;5107784;27;20058;-52
2022/08/20 12:32:26;;;;;;;0.98;0.80;;;;;;;;;;5112202;27;20050;-51
2022/08/20 12:34:52;;;;;;;9.90;1.10;;;;;;;;;;5108825;27;20039;-48
2022/08/20 12:37:19;;;;;;;4.45;0.80;;;;;;;;;;5108622;27;20043;-51
2022/08/20 12:39:46;;;;;;;0.50;0.40;;;;;;;;;;5109208;28;20032;-49
2022/08/20 12:42:11;;;;;;;0.43;0.30;;;;;;;;;;5107849;27;20063;-52
2022/08/20 12:44:37;;;;;;;2.72;0.75;;;;;;;;;;5110239;27;20463;-49
2022/08/20 12:47:06;;;;;;;0.30;0.10;;;;;;;;;;5108814;28;20047;-52
2022/08/20 12:49:31;;;;;;;1.42;0.73;;;;;;;;;;5108689;28;20054;-49
2022/08/20 12:51:56;;;;;;;2.80;1.00;;;;;;;;;;5108643;28;20039;-49
2022/08/20 12:54:22;;;;;;;1.30;0.40;;;;;;;;;;5108239;28;20045;-53
2022/08/20 12:56:47;;;;;;;0.85;0.50;;;;;;;;;;5106062;28;20564;-52
2022/08/20 12:59:12;;;;;;;3.47;0.73;;;;;;;;;;5109751;28;20561;-51
2022/08/20 13:01:37;;;;;;;9.65;0.98;;;;;;;;;;5109278;28;20524;-51
2022/08/20 13:04:03;;;;;;;0.30;0.20;;;;;;;;;;5108689;28;20432;-52
2022/08/20 13:06:28;;;;;;;2.25;0.75;;;;;;;;;;5106084;28;20075;-48
2022/08/20 13:08:53;;;;;;;1.23;0.57;;;;;;;;;;5108244;28;20071;-52
2022/08/20 13:11:19;;;;;;;1.30;0.50;;;;;;;;;;5108923;28;20043;-51
2022/08/20 13:13:46;;;;;;;1.02;0.52;;;;;;;;;;5108734;28;20055;-51
2022/08/20 13:16:11;;;;;;;0.60;0.35;;;;;;;;;;5108894;28;20101;-49
2022/08/20 13:18:37;;;;;;;0.88;0.40;;;;;;;;;;5109359;28;20055;-50
2022/08/20 13:21:02;;;;;;;3.25;0.98;;;;;;;;;;5107538;28;20051;-51
2022/08/20 13:23:27;;;;;;;0.30;0.28;;;;;;;;;;5106120;28;20620;-50
2022/08/20 13:25:53;;;;;;;4.85;0.77;;;;;;;;;;5109470;27;20047;-52
2022/08/20 13:28:18;;;;;;;1.55;0.82;;;;;;;;;;5110326;27;20082;-48
2022/08/20 13:30:43;;;;;;;2.17;0.50;;;;;;;;;;5108822;28;20198;-51
2022/08/20 13:33:08;;;;;;;0.98;0.57;;;;;;;;;;5109188;27;20036;-51
2022/08/20 13:35:34;;;;;;;0.95;0.60;;;;;;;;;;5106554;28;20538;-51
2022/08/20 13:37:59;;;;;;;0.75;0.50;;;;;;;;;;5110111;27;20078;-50
2022/08/20 13:40:25;;;;;;;0.47;0.45;;;;;;;;;;5085027;28;20484;-51
2022/08/20 13:42:50;;;;;;;1.20;0.30;;;;;;;;;;5107632;28;20050;-53
2022/08/20 13:45:15;;;;;;;0.70;0.40;;;;;;;;;;5107228;28;20544;-51
2022/08/20 13:47:41;;;;;;;4.43;0.40;;;;;;;;;;5108290;27;20443;-54
2022/08/20 13:50:08;;;;;;;1.77;1.30;;;;;;;;;;5110232;27;20363;-55
2022/08/20 13:52:34;;;;;;;0.20;0.20;;;;;;;;;;5108784;27;20100;-54
2022/08/20 13:54:59;;;;;;;0.90;0.60;;;;;;;;;;5110784;27;20047;-52
2022/08/20 13:57:25;;;;;;;1.02;0.45;;;;;;;;;;5109117;27;20036;-48
2022/08/20 13:59:52;;;;;;;4.43;0.77;;;;;;;;;;5108855;27;20054;-47
2022/08/20 14:02:18;;;;;;;7.38;1.13;;;;;;;;;;5110361;27;20482;-52
2022/08/20 14:04:43;;;;;;;8.50;1.38;;;;;;;;;;5108172;27;20051;-49
2022/08/20 14:07:13;;;;;;;0.70;0.32;;;;;;;;;;5109388;27;20111;-49
2022/08/20 14:09:40;;;;;;;0.77;0.33;;;;;;;;;;5107635;27;20088;-51
2022/08/20 14:12:06;;;;;;;1.20;0.75;;;;;;;;;;5108412;27;20059;-53
2022/08/20 14:14:31;;;;;;;0.65;0.47;;;;;;;;;;5110793;27;20131;-51
2022/08/20 14:16:56;;;;;;;2.55;0.43;;;;;;;;;;5106438;27;20130;-49
2022/08/20 14:19:22;;;;;;;0.57;0.43;;;;;;;;;;5108948;27;20051;-50
2022/08/20 14:21:47;;;;;;;0.60;0.40;;;;;;;;;;5110820;27;20051;-51
2022/08/20 14:24:12;;;;;;;0.32;0.32;;;;;;;;;;5109305;27;20047;-51
2022/08/20 14:26:38;;;;;;;0.52;0.28;;;;;;;;;;5108560;27;20032;-52
2022/08/20 14:29:03;;;;;;;6.18;0.60;;;;;;;;;;5110591;27;20733;-54
2022/08/20 14:31:28;;;;;;;2.38;0.38;;;;;;;;;;5106459;27;20692;-49
2022/08/20 14:33:53;;;;;;;1.25;0.63;;;;;;;;;;5111693;27;20087;-53
2022/08/20 14:36:19;;;;;;;1.33;0.30;;;;;;;;;;5106844;27;20733;-48
2022/08/20 14:38:44;;;;;;;0.20;0.20;;;;;;;;;;5106164;27;20077;-52
2022/08/20 14:41:10;;;;;;;1.58;0.68;;;;;;;;;;5108204;27;20391;-53